sensor_id;sensor_type;location;lat;lon;timestamp;pressure;altitude;pressure_sealevel;temperature;humidity
46756;BME280;32506;52.826;-1.192;2023-03-26T00:01:14;99690.03;;;8.00;57.42
46756;BME280;32506;52.826;-1.192;2023-03-26T00:03:41;99674.06;;;8.00;56.85
46756;BME280;32506;52.826;-1.192;2023-03-26T00:06:12;99669.75;;;7.99;57.52
46756;BME280;32506;52.826;-1.192;2023-03-26T00:08:39;99672.63;;;7.97;57.06
46756;BME280;32506;52.826;-1.192;2023-03-26T00:11:07;99671.84;;;7.97;57.08
46756;BME280;32506;52.826;-1.192;2023-03-26T00:13:33;99665.69;;;7.96;57.14
46756;BME280;32506;52.826;-1.192;2023-03-26T00:15:59;99665.69;;;7.96;57.14
46756;BME280;32506;52.826;-1.192;2023-03-26T00:18:26;99664.88;;;7.96;57.43
46756;BME280;32506;52.826;-1.192;2023-03-26T00:21:01;99665.91;;;7.95;57.39
46756;BME280;32506;52.826;-1.192;2023-03-26T00:23:29;99665.09;;;7.94;57.46
46756;BME280;32506;52.826;-1.192;2023-03-26T00:25:55;99664.50;;;7.92;57.77
46756;BME280;32506;52.826;-1.192;2023-03-26T00:28:22;99662.66;;;7.93;57.30
46756;BME280;32506;52.826;-1.192;2023-03-26T00:31:00;99657.56;;;7.91;57.32
46756;BME280;32506;52.826;-1.192;2023-03-26T00:33:25;99660.22;;;7.91;57.41
46756;BME280;32506;52.826;-1.192;2023-03-26T00:35:53;99658.59;;;7.90;57.24
46756;BME280;32506;52.826;-1.192;2023-03-26T00:38:20;99655.94;;;7.90;57.59
46756;BME280;32506;52.826;-1.192;2023-03-26T00:41:00;99654.28;;;7.89;57.44
46756;BME280;32506;52.826;-1.192;2023-03-26T00:43:40;99654.28;;;7.89;57.72
46756;BME280;32506;52.826;-1.192;2023-03-26T00:46:18;99655.09;;;7.89;57.76
46756;BME280;32506;52.826;-1.192;2023-03-26T00:48:58;99656.16;;;7.88;57.71
46756;BME280;32506;52.826;-1.192;2023-03-26T00:51:30;99647.56;;;7.86;57.64
46756;BME280;32506;52.826;-1.192;2023-03-26T00:54:03;99643.25;;;7.85;57.37
46756;BME280;32506;52.826;-1.192;2023-03-26T00:56:45;99649.63;;;7.84;57.69
46756;BME280;32506;52.826;-1.192;2023-03-26T00:59:21;99655.75;;;7.85;57.63
46756;BME280;32506;52.826;-1.192;2023-03-26T01:02:04;99643.47;;;7.84;57.28
46756;BME280;32506;52.826;-1.192;2023-03-26T01:04:43;99645.13;;;7.85;58.13
46756;BME280;32506;52.826;-1.192;2023-03-26T01:07:11;99642.69;;;7.83;57.98
46756;BME280;32506;52.826;-1.192;2023-03-26T01:09:43;99635.72;;;7.82;57.68
46756;BME280;32506;52.826;-1.192;2023-03-26T01:12:12;99632.84;;;7.84;57.73
46756;BME280;32506;52.826;-1.192;2023-03-26T01:14:40;99633.28;;;7.81;57.71
46756;BME280;32506;52.826;-1.192;2023-03-26T01:17:06;99629.81;;;7.80;57.61
46756;BME280;32506;52.826;-1.192;2023-03-26T01:22:13;99635.16;;;7.80;58.21
46756;BME280;32506;52.826;-1.192;2023-03-26T01:24:40;99633.50;;;7.79;57.92
46756;BME280;32506;52.826;-1.192;2023-03-26T01:27:22;99636.16;;;7.79;57.60
46756;BME280;32506;52.826;-1.192;2023-03-26T01:41:05;99627.59;;;7.77;57.77
46756;BME280;32506;52.826;-1.192;2023-03-26T01:46:09;99620.63;;;7.76;57.95
46756;BME280;32506;52.826;-1.192;2023-03-26T01:48:39;99612.66;;;7.76;57.72
46756;BME280;32506;52.826;-1.192;2023-03-26T01:51:06;99614.50;;;7.76;58.42
46756;BME280;32506;52.826;-1.192;2023-03-26T01:53:34;99611.84;;;7.76;57.88
46756;BME280;32506;52.826;-1.192;2023-03-26T01:56:08;99609.97;;;7.76;58.17
46756;BME280;32506;52.826;-1.192;2023-03-26T01:58:40;99617.16;;;7.76;58.32
46756;BME280;32506;52.826;-1.192;2023-03-26T02:03:46;99600.41;;;7.75;58.32
46756;BME280;32506;52.826;-1.192;2023-03-26T02:09:13;99595.09;;;7.75;57.94
46756;BME280;32506;52.826;-1.192;2023-03-26T02:11:40;99596.91;;;7.75;58.18
46756;BME280;32506;52.826;-1.192;2023-03-26T02:14:08;99591.81;;;7.73;58.26
46756;BME280;32506;52.826;-1.192;2023-03-26T02:16:33;99593.44;;;7.74;58.34
46756;BME280;32506;52.826;-1.192;2023-03-26T02:18:59;99588.34;;;7.72;58.42
46756;BME280;32506;52.826;-1.192;2023-03-26T02:21:25;99586.50;;;7.73;58.12
46756;BME280;32506;52.826;-1.192;2023-03-26T02:23:54;99591.81;;;7.73;58.54
46756;BME280;32506;52.826;-1.192;2023-03-26T02:26:28;99587.50;;;7.72;58.39
46756;BME280;32506;52.826;-1.192;2023-03-26T02:28:54;99588.34;;;7.72;57.85
46756;BME280;32506;52.826;-1.192;2023-03-26T02:31:19;99578.72;;;7.71;58.15
46756;BME280;32506;52.826;-1.192;2023-03-26T02:33:46;99577.09;;;7.70;58.09
46756;BME280;32506;52.826;-1.192;2023-03-26T02:36:14;99573.63;;;7.70;58.38
46756;BME280;32506;52.826;-1.192;2023-03-26T02:38:42;99575.47;;;7.69;58.28
46756;BME280;32506;52.826;-1.192;2023-03-26T02:41:07;99568.53;;;7.68;58.14
46756;BME280;32506;52.826;-1.192;2023-03-26T02:43:32;99565.06;;;7.68;58.11
46756;BME280;32506;52.826;-1.192;2023-03-26T02:45:58;99564.25;;;7.67;58.66
46756;BME280;32506;52.826;-1.192;2023-03-26T02:48:23;99566.91;;;7.67;58.05
46756;BME280;32506;52.826;-1.192;2023-03-26T02:50:49;99568.97;;;7.65;58.40
46756;BME280;32506;52.826;-1.192;2023-03-26T02:53:19;99562.84;;;7.65;58.49
46756;BME280;32506;52.826;-1.192;2023-03-26T02:55:46;99561.19;;;7.64;58.18
46756;BME280;32506;52.826;-1.192;2023-03-26T02:58:12;99562.25;;;7.63;58.72
46756;BME280;32506;52.826;-1.192;2023-03-26T03:00:43;99552.88;;;7.60;58.55
46756;BME280;32506;52.826;-1.192;2023-03-26T03:03:08;99556.31;;;7.61;58.63
46756;BME280;32506;52.826;-1.192;2023-03-26T03:05:34;99553.88;;;7.59;58.65
46756;BME280;32506;52.826;-1.192;2023-03-26T03:08:02;99552.03;;;7.60;58.86
46756;BME280;32506;52.826;-1.192;2023-03-26T03:10:30;99558.38;;;7.59;59.05
46756;BME280;32506;52.826;-1.192;2023-03-26T03:12:57;99546.13;;;7.58;58.60
46756;BME280;32506;52.826;-1.192;2023-03-26T03:15:22;99555.94;;;7.57;58.54
46756;BME280;32506;52.826;-1.192;2023-03-26T03:17:48;99556.16;;;7.55;58.85
46756;BME280;32506;52.826;-1.192;2023-03-26T03:20:13;99555.34;;;7.55;59.05
46756;BME280;32506;52.826;-1.192;2023-03-26T03:22:40;99557.19;;;7.54;58.71
46756;BME280;32506;52.826;-1.192;2023-03-26T03:25:06;99556.59;;;7.52;58.55
46756;BME280;32506;52.826;-1.192;2023-03-26T03:27:39;99555.78;;;7.52;58.87
46756;BME280;32506;52.826;-1.192;2023-03-26T03:30:05;99554.16;;;7.51;58.80
46756;BME280;32506;52.826;-1.192;2023-03-26T03:32:31;99551.50;;;7.51;58.89
46756;BME280;32506;52.826;-1.192;2023-03-26T03:34:56;99555.78;;;7.52;59.20
46756;BME280;32506;52.826;-1.192;2023-03-26T03:37:22;99561.31;;;7.50;59.37
46756;BME280;32506;52.826;-1.192;2023-03-26T03:39:48;99556.22;;;7.49;59.11
46756;BME280;32506;52.826;-1.192;2023-03-26T03:42:14;99559.72;;;7.49;59.28
46756;BME280;32506;52.826;-1.192;2023-03-26T03:44:39;99559.72;;;7.49;58.97
46756;BME280;32506;52.826;-1.192;2023-03-26T03:47:05;99563.41;;;7.48;59.35
46756;BME280;32506;52.826;-1.192;2023-03-26T03:49:31;99556.44;;;7.47;59.10
46756;BME280;32506;52.826;-1.192;2023-03-26T03:51:56;99561.75;;;7.47;59.23
46756;BME280;32506;52.826;-1.192;2023-03-26T03:54:22;99563.41;;;7.48;59.43
46756;BME280;32506;52.826;-1.192;2023-03-26T03:56:48;99549.50;;;7.46;59.11
46756;BME280;32506;52.826;-1.192;2023-03-26T03:59:13;99556.44;;;7.47;59.58
46756;BME280;32506;52.826;-1.192;2023-03-26T04:01:40;99553.78;;;7.47;59.46
46756;BME280;32506;52.826;-1.192;2023-03-26T04:04:11;99556.66;;;7.46;59.79
46756;BME280;32506;52.826;-1.192;2023-03-26T04:06:36;99553.78;;;7.47;59.77
46756;BME280;32506;52.826;-1.192;2023-03-26T04:09:03;99552.97;;;7.47;59.69
46756;BME280;32506;52.826;-1.192;2023-03-26T04:11:28;99548.69;;;7.46;59.62
46756;BME280;32506;52.826;-1.192;2023-03-26T04:13:54;99549.50;;;7.46;60.04
46756;BME280;32506;52.826;-1.192;2023-03-26T04:16:19;99554.81;;;7.46;59.83
46756;BME280;32506;52.826;-1.192;2023-03-26T04:18:46;99559.09;;;7.47;59.61
46756;BME280;32506;52.826;-1.192;2023-03-26T04:21:11;99556.44;;;7.47;59.43
46756;BME280;32506;52.826;-1.192;2023-03-26T04:23:40;99557.47;;;7.46;59.58
46756;BME280;32506;52.826;-1.192;2023-03-26T04:26:07;99557.47;;;7.46;59.68
46756;BME280;32506;52.826;-1.192;2023-03-26T04:28:54;99560.94;;;7.47;60.29
46756;BME280;32506;52.826;-1.192;2023-03-26T04:31:22;99560.13;;;7.46;59.52
46756;BME280;32506;52.826;-1.192;2023-03-26T04:33:50;99554.81;;;7.46;59.98
46756;BME280;32506;52.826;-1.192;2023-03-26T04:36:24;99556.66;;;7.46;60.51
46756;BME280;32506;52.826;-1.192;2023-03-26T04:38:51;99552.97;;;7.47;60.40
46756;BME280;32506;52.826;-1.192;2023-03-26T04:41:17;99562.56;;;7.48;60.37
46756;BME280;32506;52.826;-1.192;2023-03-26T04:43:43;99567.88;;;7.48;60.44
46756;BME280;32506;52.826;-1.192;2023-03-26T04:46:15;99559.09;;;7.47;60.71
46756;BME280;32506;52.826;-1.192;2023-03-26T04:48:43;99561.75;;;7.47;60.65
46756;BME280;32506;52.826;-1.192;2023-03-26T04:51:09;99566.06;;;7.48;60.15
46756;BME280;32506;52.826;-1.192;2023-03-26T04:53:52;99559.91;;;7.48;60.76
46756;BME280;32506;52.826;-1.192;2023-03-26T04:56:43;99565.03;;;7.49;60.76
46756;BME280;32506;52.826;-1.192;2023-03-26T04:59:13;99576.69;;;7.48;60.31
46756;BME280;32506;52.826;-1.192;2023-03-26T05:01:40;99569.50;;;7.49;60.17
46756;BME280;32506;52.826;-1.192;2023-03-26T05:04:06;99570.34;;;7.49;60.77
46756;BME280;32506;52.826;-1.192;2023-03-26T05:06:32;99570.34;;;7.49;60.68
46756;BME280;32506;52.826;-1.192;2023-03-26T05:08:59;99570.34;;;7.49;60.76
46756;BME280;32506;52.826;-1.192;2023-03-26T05:11:26;99570.34;;;7.49;60.48
46756;BME280;32506;52.826;-1.192;2023-03-26T05:13:52;99570.34;;;7.49;60.96
46756;BME280;32506;52.826;-1.192;2023-03-26T05:16:18;99572.78;;;7.51;60.81
46756;BME280;32506;52.826;-1.192;2023-03-26T05:18:43;99572.78;;;7.51;60.79
46756;BME280;32506;52.826;-1.192;2023-03-26T05:21:10;99572.78;;;7.51;61.15
46756;BME280;32506;52.826;-1.192;2023-03-26T05:23:36;99574.38;;;7.52;60.54
46756;BME280;32506;52.826;-1.192;2023-03-26T05:26:02;99572.78;;;7.51;60.59
46756;BME280;32506;52.826;-1.192;2023-03-26T05:28:27;99572.78;;;7.51;60.87
46756;BME280;32506;52.826;-1.192;2023-03-26T05:30:53;99584.00;;;7.53;61.38
46756;BME280;32506;52.826;-1.192;2023-03-26T05:33:20;99578.69;;;7.53;60.75
46756;BME280;32506;52.826;-1.192;2023-03-26T05:35:46;99579.50;;;7.53;60.93
46756;BME280;32506;52.826;-1.192;2023-03-26T05:38:13;99585.84;;;7.52;61.21
46756;BME280;32506;52.826;-1.192;2023-03-26T05:40:39;99588.50;;;7.52;61.13
46756;BME280;32506;52.826;-1.192;2023-03-26T05:43:05;99595.47;;;7.53;61.48
46756;BME280;32506;52.826;-1.192;2023-03-26T05:45:30;99592.81;;;7.53;61.24
46756;BME280;32506;52.826;-1.192;2023-03-26T05:47:56;99602.38;;;7.54;60.98
46756;BME280;32506;52.826;-1.192;2023-03-26T05:50:21;99590.34;;;7.52;61.61
46756;BME280;32506;52.826;-1.192;2023-03-26T05:52:47;99606.09;;;7.53;61.50
46756;BME280;32506;52.826;-1.192;2023-03-26T05:55:12;99600.78;;;7.53;61.23
46756;BME280;32506;52.826;-1.192;2023-03-26T05:57:38;99608.75;;;7.53;61.28
46756;BME280;32506;52.826;-1.192;2023-03-26T06:00:05;99612.22;;;7.54;61.64
46756;BME280;32506;52.826;-1.192;2023-03-26T06:02:33;99617.53;;;7.54;61.19
46756;BME280;32506;52.826;-1.192;2023-03-26T06:04:59;99618.34;;;7.54;61.30
46756;BME280;32506;52.826;-1.192;2023-03-26T06:07:25;99625.53;;;7.54;61.67
46756;BME280;32506;52.826;-1.192;2023-03-26T06:09:51;99630.84;;;7.54;61.46
46756;BME280;32506;52.826;-1.192;2023-03-26T06:12:17;99626.31;;;7.54;61.27
46756;BME280;32506;52.826;-1.192;2023-03-26T06:14:43;99636.16;;;7.54;61.56
46756;BME280;32506;52.826;-1.192;2023-03-26T06:17:09;99636.97;;;7.54;61.72
46756;BME280;32506;52.826;-1.192;2023-03-26T06:19:34;99632.69;;;7.53;61.81
46756;BME280;32506;52.826;-1.192;2023-03-26T06:22:00;99642.50;;;7.53;61.73
46756;BME280;32506;52.826;-1.192;2023-03-26T06:24:25;99642.50;;;7.53;61.37
46756;BME280;32506;52.826;-1.192;2023-03-26T06:26:51;99655.00;;;7.52;61.67
46756;BME280;32506;52.826;-1.192;2023-03-26T06:29:16;99660.31;;;7.52;61.47
46756;BME280;32506;52.826;-1.192;2023-03-26T06:31:42;99655.00;;;7.52;61.37
46756;BME280;32506;52.826;-1.192;2023-03-26T06:34:07;99659.69;;;7.50;61.86
46756;BME280;32506;52.826;-1.192;2023-03-26T06:36:33;99662.34;;;7.50;61.78
46756;BME280;32506;52.826;-1.192;2023-03-26T06:38:58;99669.53;;;7.50;61.72
46756;BME280;32506;52.826;-1.192;2023-03-26T06:41:24;99673.22;;;7.49;61.40
46756;BME280;32506;52.826;-1.192;2023-03-26T06:43:49;99681.19;;;7.49;61.49
46756;BME280;32506;52.826;-1.192;2023-03-26T06:46:15;99682.00;;;7.49;62.09
46756;BME280;32506;52.826;-1.192;2023-03-26T06:48:41;99682.00;;;7.49;61.51
46756;BME280;32506;52.826;-1.192;2023-03-26T06:51:07;99696.13;;;7.50;61.22
46756;BME280;32506;52.826;-1.192;2023-03-26T06:53:33;99696.34;;;7.48;61.80
46756;BME280;32506;52.826;-1.192;2023-03-26T06:55:59;99702.66;;;7.47;61.94
46756;BME280;32506;52.826;-1.192;2023-03-26T06:58:24;99705.31;;;7.47;62.01
46756;BME280;32506;52.826;-1.192;2023-03-26T07:00:52;99706.34;;;7.46;62.08
46756;BME280;32506;52.826;-1.192;2023-03-26T07:03:18;99709.00;;;7.46;61.58
46756;BME280;32506;52.826;-1.192;2023-03-26T07:05:43;99719.66;;;7.46;61.87
46756;BME280;32506;52.826;-1.192;2023-03-26T07:08:09;99725.97;;;7.45;61.16
46756;BME280;32506;52.826;-1.192;2023-03-26T07:10:38;99745.22;;;7.47;61.75
46756;BME280;32506;52.826;-1.192;2023-03-26T07:13:05;99742.78;;;7.46;61.80
46756;BME280;32506;52.826;-1.192;2023-03-26T07:15:31;99740.13;;;7.46;61.83
46756;BME280;32506;52.826;-1.192;2023-03-26T07:17:56;99752.78;;;7.44;61.60
46756;BME280;32506;52.826;-1.192;2023-03-26T07:20:22;99756.28;;;7.44;61.79
46756;BME280;32506;52.826;-1.192;2023-03-26T07:22:48;99767.72;;;7.45;61.46
46756;BME280;32506;52.826;-1.192;2023-03-26T07:25:14;99774.88;;;7.44;61.29
46756;BME280;32506;52.826;-1.192;2023-03-26T07:28:09;99768.75;;;7.44;61.52
46756;BME280;32506;52.826;-1.192;2023-03-26T07:36:28;99791.06;;;7.43;61.81
46756;BME280;32506;52.826;-1.192;2023-03-26T07:44:17;99808.03;;;7.42;61.35
46756;BME280;32506;52.826;-1.192;2023-03-26T07:46:45;99808.25;;;7.40;61.83
46756;BME280;32506;52.826;-1.192;2023-03-26T07:49:12;99809.84;;;7.41;61.31
46756;BME280;32506;52.826;-1.192;2023-03-26T07:51:38;99821.53;;;7.40;61.35
46756;BME280;32506;52.826;-1.192;2023-03-26T07:54:04;99825.81;;;7.41;61.45
46756;BME280;32506;52.826;-1.192;2023-03-26T07:56:37;99832.97;;;7.41;61.22
46756;BME280;32506;52.826;-1.192;2023-03-26T08:14:59;99861.19;;;7.42;60.89
46756;BME280;32506;52.826;-1.192;2023-03-26T08:17:45;99877.97;;;7.42;61.38
46756;BME280;32506;52.826;-1.192;2023-03-26T08:23:02;99883.28;;;7.42;60.84
46756;BME280;32506;52.826;-1.192;2023-03-26T08:25:42;99886.94;;;7.41;61.12
46756;BME280;32506;52.826;-1.192;2023-03-26T08:30:43;99897.41;;;7.43;61.66
46756;BME280;32506;52.826;-1.192;2023-03-26T08:33:17;99906.41;;;7.42;61.68
46756;BME280;32506;52.826;-1.192;2023-03-26T08:35:46;99906.19;;;7.43;61.29
46756;BME280;32506;52.826;-1.192;2023-03-26T08:38:15;99916.81;;;7.43;61.58
46756;BME280;32506;52.826;-1.192;2023-03-26T08:54:40;99943.59;;;7.48;62.01
46756;BME280;32506;52.826;-1.192;2023-03-26T09:02:34;99960.34;;;7.55;62.60
46756;BME280;32506;52.826;-1.192;2023-03-26T09:16:09;100002.06;;;7.75;63.51
46756;BME280;32506;52.826;-1.192;2023-03-26T09:19:16;99996.94;;;7.80;63.44
46756;BME280;32506;52.826;-1.192;2023-03-26T09:49:31;100059.41;;;8.30;64.98
46756;BME280;32506;52.826;-1.192;2023-03-26T10:00:57;100082.53;;;8.49;64.59
46756;BME280;32506;52.826;-1.192;2023-03-26T10:03:40;100091.50;;;8.55;64.63
46756;BME280;32506;52.826;-1.192;2023-03-26T10:09:16;100094.97;;;8.62;64.61
46756;BME280;32506;52.826;-1.192;2023-03-26T10:14:14;100100.88;;;8.71;64.63
46756;BME280;32506;52.826;-1.192;2023-03-26T10:32:34;100147.91;;;8.97;64.78
46756;BME280;32506;52.826;-1.192;2023-03-26T10:38:32;100163.25;;;9.02;64.42
46756;BME280;32506;52.826;-1.192;2023-03-26T10:43:26;100171.66;;;9.05;63.94
46756;BME280;32506;52.826;-1.192;2023-03-26T10:56:48;100196.81;;;9.16;63.63
46756;BME280;32506;52.826;-1.192;2023-03-26T10:59:15;100205.41;;;9.18;63.94
46756;BME280;32506;52.826;-1.192;2023-03-26T11:02:43;100205.00;;;9.21;63.78
46756;BME280;32506;52.826;-1.192;2023-03-26T11:07:20;100227.31;;;9.27;63.66
46756;BME280;32506;52.826;-1.192;2023-03-26T11:20:42;100252.28;;;9.39;63.55
46756;BME280;32506;52.826;-1.192;2023-03-26T11:23:35;100258.03;;;9.43;63.50
46756;BME280;32506;52.826;-1.192;2023-03-26T11:34:15;100281.34;;;9.54;63.79
46756;BME280;32506;52.826;-1.192;2023-03-26T11:36:45;100279.31;;;9.56;64.27
46756;BME280;32506;52.826;-1.192;2023-03-26T11:39:17;100289.09;;;9.63;64.32
46756;BME280;32506;52.826;-1.192;2023-03-26T11:41:46;100294.84;;;9.66;64.78
46756;BME280;32506;52.826;-1.192;2023-03-26T11:46:42;100304.84;;;9.78;64.40
46756;BME280;32506;52.826;-1.192;2023-03-26T11:49:11;100312.19;;;9.82;64.55
46756;BME280;32506;52.826;-1.192;2023-03-26T11:51:39;100307.84;;;9.88;64.67
46756;BME280;32506;52.826;-1.192;2023-03-26T11:54:06;100318.72;;;9.93;64.66
46756;BME280;32506;52.826;-1.192;2023-03-26T11:56:50;100321.34;;;10.00;64.91
46756;BME280;32506;52.826;-1.192;2023-03-26T11:59:53;100329.09;;;10.08;65.06
46756;BME280;32506;52.826;-1.192;2023-03-26T12:02:29;100329.25;;;10.13;65.47
46756;BME280;32506;52.826;-1.192;2023-03-26T12:05:13;100336.78;;;10.23;65.75
46756;BME280;32506;52.826;-1.192;2023-03-26T12:07:52;100341.44;;;10.34;66.56
46756;BME280;32506;52.826;-1.192;2023-03-26T12:12:58;100356.31;;;10.55;66.58
46756;BME280;32506;52.826;-1.192;2023-03-26T12:15:24;100353.38;;;10.64;66.23
46756;BME280;32506;52.826;-1.192;2023-03-26T12:17:53;100361.69;;;10.74;66.25
46756;BME280;32506;52.826;-1.192;2023-03-26T12:22:59;100379.03;;;10.90;66.00
46756;BME280;32506;52.826;-1.192;2023-03-26T12:25:33;100386.78;;;10.98;65.80
46756;BME280;32506;52.826;-1.192;2023-03-26T12:30:39;100389.94;;;11.14;65.43
46756;BME280;32506;52.826;-1.192;2023-03-26T12:33:21;100405.69;;;11.22;65.16
46756;BME280;32506;52.826;-1.192;2023-03-26T12:36:01;100409.09;;;11.29;65.46
46756;BME280;32506;52.826;-1.192;2023-03-26T12:38:53;100404.94;;;11.33;64.96
46756;BME280;32506;52.826;-1.192;2023-03-26T12:41:31;100408.84;;;11.37;65.03
46756;BME280;32506;52.826;-1.192;2023-03-26T12:44:22;100412.25;;;11.45;65.04
46756;BME280;32506;52.826;-1.192;2023-03-26T12:46:50;100415.09;;;11.50;65.14
46756;BME280;32506;52.826;-1.192;2023-03-26T12:49:20;100420.38;;;11.56;65.35
46756;BME280;32506;52.826;-1.192;2023-03-26T12:51:53;100423.19;;;11.62;65.24
46756;BME280;32506;52.826;-1.192;2023-03-26T12:57:35;100422.19;;;11.74;64.81
46756;BME280;32506;52.826;-1.192;2023-03-26T13:01:00;100446.22;;;11.81;64.87
46756;BME280;32506;52.826;-1.192;2023-03-26T13:09:00;100441.59;;;12.07;65.50
46756;BME280;32506;52.826;-1.192;2023-03-26T13:14:33;100445.09;;;12.38;65.82
46756;BME280;32506;52.826;-1.192;2023-03-26T13:19:54;100465.34;;;12.64;64.97
46756;BME280;32506;52.826;-1.192;2023-03-26T13:25:25;100479.03;;;12.86;65.42
46756;BME280;32506;52.826;-1.192;2023-03-26T13:30:55;100487.72;;;13.12;65.41
46756;BME280;32506;52.826;-1.192;2023-03-26T13:33:37;100486.22;;;13.28;64.67
46756;BME280;32506;52.826;-1.192;2023-03-26T13:36:12;100498.84;;;13.39;64.86
46756;BME280;32506;52.826;-1.192;2023-03-26T13:44:23;100506.44;;;13.66;63.99
46756;BME280;32506;52.826;-1.192;2023-03-26T13:46:59;100516.13;;;13.67;63.74
46756;BME280;32506;52.826;-1.192;2023-03-26T13:49:40;100529.88;;;13.71;63.37
46756;BME280;32506;52.826;-1.192;2023-03-26T13:52:10;100535.25;;;13.71;63.26
46756;BME280;32506;52.826;-1.192;2023-03-26T13:55:06;100548.69;;;13.71;62.91
46756;BME280;32506;52.826;-1.192;2023-03-26T13:57:37;100544.16;;;13.71;62.80
46756;BME280;32506;52.826;-1.192;2023-03-26T14:00:19;100543.53;;;13.69;62.17
46756;BME280;32506;52.826;-1.192;2023-03-26T14:02:54;100544.84;;;13.67;61.82
46756;BME280;32506;52.826;-1.192;2023-03-26T14:05:26;100551.47;;;13.64;61.50
46756;BME280;32506;52.826;-1.192;2023-03-26T14:08:16;100549.63;;;13.65;61.04
46756;BME280;32506;52.826;-1.192;2023-03-26T14:10:50;100548.47;;;13.61;60.83
46756;BME280;32506;52.826;-1.192;2023-03-26T14:15:54;100551.28;;;13.54;60.26
46756;BME280;32506;52.826;-1.192;2023-03-26T14:23:46;100569.34;;;13.47;59.76
46756;BME280;32506;52.826;-1.192;2023-03-26T14:37:42;100585.53;;;13.28;58.91
46756;BME280;32506;52.826;-1.192;2023-03-26T14:54:18;100620.81;;;13.01;57.93
46756;BME280;32506;52.826;-1.192;2023-03-26T15:00:08;100636.38;;;12.92;58.09
46756;BME280;32506;52.826;-1.192;2023-03-26T15:34:10;100728.00;;;12.34;56.64
46756;BME280;32506;52.826;-1.192;2023-03-26T15:36:38;100733.41;;;12.27;57.07
46756;BME280;32506;52.826;-1.192;2023-03-26T15:39:33;100741.28;;;12.22;57.03
46756;BME280;32506;52.826;-1.192;2023-03-26T15:42:29;100738.47;;;12.17;57.01
46756;BME280;32506;52.826;-1.192;2023-03-26T15:50:09;100749.31;;;12.03;57.23
46756;BME280;32506;52.826;-1.192;2023-03-26T15:55:27;100759.22;;;11.96;57.48
46756;BME280;32506;52.826;-1.192;2023-03-26T16:06:42;100775.81;;;11.80;56.99
46756;BME280;32506;52.826;-1.192;2023-03-26T16:17:13;100791.31;;;11.64;56.97
46756;BME280;32506;52.826;-1.192;2023-03-26T16:20:23;100801.66;;;11.61;56.56
46756;BME280;32506;52.826;-1.192;2023-03-26T16:23:01;100812.19;;;11.55;56.77
46756;BME280;32506;52.826;-1.192;2023-03-26T16:25:31;100809.94;;;11.52;57.00
46756;BME280;32506;52.826;-1.192;2023-03-26T16:33:47;100840.03;;;11.41;57.19
46756;BME280;32506;52.826;-1.192;2023-03-26T16:36:24;100840.47;;;11.38;56.63
46756;BME280;32506;52.826;-1.192;2023-03-26T16:41:26;100850.16;;;11.32;56.31
46756;BME280;32506;52.826;-1.192;2023-03-26T16:44:08;100874.06;;;11.27;56.07
46756;BME280;32506;52.826;-1.192;2023-03-26T16:52:30;100891.78;;;11.15;56.07
46756;BME280;32506;52.826;-1.192;2023-03-26T16:55:12;100894.47;;;11.08;56.33
46756;BME280;32506;52.826;-1.192;2023-03-26T17:16:41;100931.50;;;10.64;56.30
46756;BME280;32506;52.826;-1.192;2023-03-26T17:22:14;100948.16;;;10.53;56.43
46756;BME280;32506;52.826;-1.192;2023-03-26T17:25:01;100947.09;;;10.47;56.41
46756;BME280;32506;52.826;-1.192;2023-03-26T17:33:21;100954.44;;;10.32;56.45
46756;BME280;32506;52.826;-1.192;2023-03-26T17:41:12;100979.47;;;10.17;56.43
46756;BME280;32506;52.826;-1.192;2023-03-26T17:43:50;100969.56;;;10.11;56.71
46756;BME280;32506;52.826;-1.192;2023-03-26T17:46:21;100982.72;;;10.06;56.71
46756;BME280;32506;52.826;-1.192;2023-03-26T17:48:58;100990.31;;;10.02;56.66
46756;BME280;32506;52.826;-1.192;2023-03-26T17:51:41;100997.88;;;9.99;56.55
46756;BME280;32506;52.826;-1.192;2023-03-26T17:54:24;101003.00;;;9.94;56.74
46756;BME280;32506;52.826;-1.192;2023-03-26T17:56:53;101007.28;;;9.88;57.09
46756;BME280;32506;52.826;-1.192;2023-03-26T17:59:21;101012.00;;;9.86;56.91
46756;BME280;32506;52.826;-1.192;2023-03-26T18:01:55;101005.59;;;9.80;56.85
46756;BME280;32506;52.826;-1.192;2023-03-26T18:04:32;101015.84;;;9.77;56.93
46756;BME280;32506;52.826;-1.192;2023-03-26T18:10:19;101025.03;;;9.67;56.46
46756;BME280;32506;52.826;-1.192;2023-03-26T18:13:21;101025.81;;;9.61;56.77
46756;BME280;32506;52.826;-1.192;2023-03-26T18:16:15;101033.56;;;9.56;56.91
46756;BME280;32506;52.826;-1.192;2023-03-26T18:18:48;101039.50;;;9.51;56.90
46756;BME280;32506;52.826;-1.192;2023-03-26T18:21:29;101043.59;;;9.47;56.75
46756;BME280;32506;52.826;-1.192;2023-03-26T18:23:57;101052.16;;;9.43;56.98
46756;BME280;32506;52.826;-1.192;2023-03-26T18:27:18;101067.75;;;9.39;57.09
46756;BME280;32506;52.826;-1.192;2023-03-26T18:29:30;101062.16;;;9.34;56.96
46756;BME280;32506;52.826;-1.192;2023-03-26T18:32:02;101064.38;;;9.30;56.94
46756;BME280;32506;52.826;-1.192;2023-03-26T18:34:30;101068.44;;;9.26;56.83
46756;BME280;32506;52.826;-1.192;2023-03-26T18:37:15;101074.97;;;9.23;57.02
46756;BME280;32506;52.826;-1.192;2023-03-26T18:42:28;101081.47;;;9.14;56.95
46756;BME280;32506;52.826;-1.192;2023-03-26T18:44:55;101072.19;;;9.10;57.13
46756;BME280;32506;52.826;-1.192;2023-03-26T18:47:21;101073.41;;;9.07;57.26
46756;BME280;32506;52.826;-1.192;2023-03-26T18:49:50;101077.28;;;9.05;56.94
46756;BME280;32506;52.826;-1.192;2023-03-26T18:52:18;101083.19;;;9.00;57.13
46756;BME280;32506;52.826;-1.192;2023-03-26T18:54:50;101076.38;;;8.98;56.85
46756;BME280;32506;52.826;-1.192;2023-03-26T18:57:25;101074.13;;;8.95;57.16
46756;BME280;32506;52.826;-1.192;2023-03-26T18:59:53;101079.00;;;8.91;57.01
46756;BME280;32506;52.826;-1.192;2023-03-26T19:02:20;101093.50;;;8.88;56.96
46756;BME280;32506;52.826;-1.192;2023-03-26T19:04:48;101096.56;;;8.85;57.00
46756;BME280;32506;52.826;-1.192;2023-03-26T19:07:18;101106.78;;;8.82;57.07
46756;BME280;32506;52.826;-1.192;2023-03-26T19:09:46;101111.66;;;8.78;57.31
46756;BME280;32506;52.826;-1.192;2023-03-26T19:12:17;101123.34;;;8.77;57.04
46756;BME280;32506;52.826;-1.192;2023-03-26T19:14:52;101125.53;;;8.73;56.96
46756;BME280;32506;52.826;-1.192;2023-03-26T19:17:18;101136.41;;;8.72;57.05
46756;BME280;32506;52.826;-1.192;2023-03-26T19:19:43;101140.25;;;8.69;57.13